Dodge, North Dakota
Current Conditions -  °F | °C
As of 12:15 PM on Sunday 23 Nov 2014 (Local Time) from KHZE Reporting Station
Light Snow Light Snow  
Wind Chill: -14°   Ceiling: Unl
Heat Index: -5°   Visibility: 9mi
Dew Point: -10°   Wind: 23mph
Humidity: 68%   Direction: 310°NW
Pressure: 29.64"   Gusts: 31mph
Location:  47.31°N, 102.2°W
Report Text: KHZE 231915Z AUTO 31020G27KT 9SM -SN CLR M05/M10 A2964 RMK AO2
Loading
Personal Weather Stations






























Interactive Weather Map New forecast layout! Learn more

10-Day Weather Forecast

Advertisements
Track Severe Weather on mobile